Time;durP1;ratioP1;P1;durP2;ratioP2;P2;SDS_P1;SDS_P2;PMS_P1;PMS_P2;Temp;Humidity;BMP_temperature;BMP_pressure;BME280_temperature;BME280_humidity;BME280_pressure;Samples;Min_cycle;Max_cycle;Signal;HPM_P1;HPM_P2
2021/03/20 00:02:03;;;;;;;0.20;0.20;;;17.00;61.90;;;;;;5053653;28;20033;-37
2021/03/20 00:04:29;;;;;;;0.30;0.30;;;17.00;61.90;;;;;;5046408;28;20026;-38
2021/03/20 00:06:55;;;;;;;0.20;0.20;;;17.00;62.10;;;;;;5046468;28;20045;-37
2021/03/20 00:09:25;;;;;;;0.55;0.35;;;17.00;62.20;;;;;;5046885;28;20016;-37
2021/03/20 00:11:51;;;;;;;0.60;0.30;;;17.00;62.10;;;;;;5051741;28;20836;-37
2021/03/20 00:14:19;;;;;;;0.20;0.20;;;16.90;62.00;;;;;;5079841;28;20024;-37
2021/03/20 00:16:45;;;;;;;0.30;0.30;;;17.00;61.90;;;;;;5031627;28;20021;-37
2021/03/20 00:19:11;;;;;;;0.40;0.30;;;16.90;61.70;;;;;;5066005;28;20029;-38
2021/03/20 00:21:38;;;;;;;0.35;0.28;;;16.90;61.70;;;;;;5048112;28;20036;-37
2021/03/20 00:24:04;;;;;;;0.20;0.20;;;16.90;61.20;;;;;;5065910;28;20017;-37
2021/03/20 00:26:31;;;;;;;0.30;0.30;;;16.90;61.20;;;;;;5065773;28;20124;-37
2021/03/20 00:28:57;;;;;;;0.45;0.30;;;16.90;61.10;;;;;;5065951;28;20056;-37
2021/03/20 00:31:23;;;;;;;0.40;0.30;;;16.90;61.10;;;;;;5061194;28;20647;-37
2021/03/20 00:33:49;;;;;;;0.30;0.20;;;16.90;61.00;;;;;;5045834;28;20077;-37
2021/03/20 00:36:16;;;;;;;0.30;0.25;;;16.90;61.00;;;;;;5055114;28;20025;-37
2021/03/20 00:38:42;;;;;;;0.20;0.20;;;16.90;61.10;;;;;;5081121;28;20076;-37
2021/03/20 00:41:09;;;;;;;0.22;0.22;;;16.90;61.00;;;;;;5085552;28;20093;-37
2021/03/20 00:43:35;;;;;;;0.50;0.25;;;16.90;61.10;;;;;;5084975;28;20052;-37
2021/03/20 00:46:03;;;;;;;0.50;0.40;;;16.90;61.00;;;;;;5065276;28;20128;-38
2021/03/20 00:48:31;;;;;;;0.30;0.30;;;16.90;61.10;;;;;;5065518;28;20029;-37
2021/03/20 00:50:57;;;;;;;1.80;0.35;;;16.80;61.20;;;;;;5065097;28;20020;-37
2021/03/20 00:53:24;;;;;;;0.40;0.30;;;16.80;61.10;;;;;;5047562;28;20032;-37
2021/03/20 00:55:50;;;;;;;0.30;0.30;;;16.80;60.70;;;;;;5066909;28;20029;-37
2021/03/20 00:58:21;;;;;;;0.30;0.20;;;16.80;60.70;;;;;;5085644;28;20028;-37
2021/03/20 01:00:48;;;;;;;0.30;0.30;;;16.80;61.00;;;;;;5067326;28;20028;-37
2021/03/20 01:03:14;;;;;;;0.43;0.20;;;16.80;60.90;;;;;;5065350;28;20029;-37
2021/03/20 01:05:40;;;;;;;0.22;0.20;;;16.80;61.20;;;;;;5065268;28;20037;-37
2021/03/20 01:08:07;;;;;;;0.25;0.25;;;16.80;61.20;;;;;;5065291;28;20040;-38
2021/03/20 01:10:33;;;;;;;0.20;0.20;;;16.80;61.10;;;;;;5065131;28;20036;-37
2021/03/20 01:12:59;;;;;;;0.32;0.32;;;16.80;61.20;;;;;;5064125;28;20980;-37
2021/03/20 01:15:25;;;;;;;0.25;0.20;;;16.80;61.80;;;;;;5080257;28;20029;-38
2021/03/20 01:17:51;;;;;;;0.57;0.22;;;16.80;61.20;;;;;;5067022;28;20028;-37
2021/03/20 01:20:20;;;;;;;0.38;0.38;;;16.80;61.10;;;;;;5084200;28;20024;-37
2021/03/20 01:22:46;;;;;;;0.20;0.20;;;16.70;61.00;;;;;;5064389;28;20036;-37
2021/03/20 01:25:12;;;;;;;0.22;0.20;;;16.70;61.00;;;;;;5063383;28;20025;-37
2021/03/20 01:27:39;;;;;;;0.40;0.37;;;16.70;61.10;;;;;;5065034;28;20083;-37
2021/03/20 01:30:08;;;;;;;0.55;0.30;;;16.70;61.00;;;;;;5064654;28;20025;-37
2021/03/20 01:32:34;;;;;;;0.30;0.30;;;16.70;61.00;;;;;;5050294;28;20085;-38
2021/03/20 01:35:00;;;;;;;0.30;0.30;;;16.70;60.90;;;;;;5052371;28;20157;-38
2021/03/20 01:37:26;;;;;;;0.40;0.28;;;16.70;60.80;;;;;;5062058;28;20036;-37
2021/03/20 01:39:52;;;;;;;0.30;0.30;;;16.70;60.70;;;;;;5064534;28;20037;-37
2021/03/20 01:42:19;;;;;;;0.50;0.40;;;16.70;60.60;;;;;;5064130;28;20028;-37
2021/03/20 01:45:11;;;;;;;0.57;0.30;;;16.70;60.40;;;;;;5056473;28;20024;-37
2021/03/20 01:47:46;;;;;;;0.30;0.22;;;16.70;60.30;;;;;;5067702;28;20036;-37
2021/03/20 01:50:16;;;;;;;0.20;0.20;;;16.70;60.30;;;;;;5066339;28;20088;-37
2021/03/20 01:52:55;;;;;;;0.30;0.30;;;16.70;60.10;;;;;;5049766;28;20024;-37
2021/03/20 01:55:21;;;;;;;0.20;0.20;;;16.70;60.30;;;;;;5050088;28;20039;-37
2021/03/20 01:57:53;;;;;;;0.32;0.30;;;16.60;60.30;;;;;;5031817;28;20088;-37
2021/03/20 02:00:32;;;;;;;0.35;0.30;;;16.60;60.30;;;;;;5046494;28;20470;-37
2021/03/20 02:03:00;;;;;;;0.43;0.30;;;16.60;60.30;;;;;;5046343;28;20080;-37
2021/03/20 02:05:28;;;;;;;0.30;0.20;;;16.60;60.00;;;;;;5010133;28;20029;-37
2021/03/20 02:07:54;;;;;;;0.22;0.22;;;16.60;60.20;;;;;;5063386;28;20033;-37
2021/03/20 02:10:22;;;;;;;0.20;0.20;;;16.60;60.30;;;;;;5045885;28;20044;-37
2021/03/20 02:12:50;;;;;;;0.30;0.20;;;16.60;60.00;;;;;;5046059;28;20041;-37
2021/03/20 02:15:47;;;;;;;0.25;0.20;;;16.60;59.90;;;;;;5060547;28;20036;-39
2021/03/20 02:18:28;;;;;;;0.20;0.20;;;16.60;60.00;;;;;;5067485;28;20033;-37
2021/03/20 02:21:07;;;;;;;0.25;0.20;;;16.50;60.00;;;;;;5083704;28;20024;-38
2021/03/20 02:24:00;;;;;;;0.30;0.20;;;16.50;60.00;;;;;;5066326;28;20048;-37
2021/03/20 02:26:55;;;;;;;0.30;0.30;;;16.50;59.90;;;;;;5058629;28;20033;-38
2021/03/20 02:29:49;;;;;;;0.28;0.28;;;16.50;59.90;;;;;;5048382;28;20029;-38
2021/03/20 02:32:44;;;;;;;0.32;0.20;;;16.50;59.90;;;;;;5036128;28;20021;-37
2021/03/20 02:35:47;;;;;;;0.25;0.22;;;16.50;59.90;;;;;;5082862;28;20031;-38
2021/03/20 02:38:34;;;;;;;0.70;0.20;;;16.50;59.90;;;;;;5083630;28;20052;-38
2021/03/20 02:41:04;;;;;;;0.30;0.30;;;16.50;59.90;;;;;;5083654;28;20063;-38
2021/03/20 02:43:54;;;;;;;0.30;0.30;;;16.50;60.00;;;;;;5065277;28;20025;-37
2021/03/20 02:46:34;;;;;;;0.20;0.20;;;16.40;59.90;;;;;;5034134;28;20095;-37
2021/03/20 02:49:19;;;;;;;0.20;0.20;;;16.40;60.00;;;;;;5043016;28;20025;-38
2021/03/20 02:52:08;;;;;;;0.20;0.20;;;16.40;59.90;;;;;;5043064;28;20048;-37
2021/03/20 02:54:58;;;;;;;0.30;0.20;;;16.40;60.00;;;;;;5028071;28;20041;-37
2021/03/20 02:57:27;;;;;;;0.28;0.28;;;16.40;60.00;;;;;;5028595;28;20057;-37
2021/03/20 02:59:57;;;;;;;0.35;0.28;;;16.40;59.90;;;;;;5008890;28;20030;-37
2021/03/20 03:02:24;;;;;;;0.30;0.20;;;16.40;60.10;;;;;;5025288;28;20032;-38
2021/03/20 03:05:07;;;;;;;0.75;0.40;;;16.30;59.90;;;;;;5025554;28;20080;-38
2021/03/20 03:07:37;;;;;;;0.38;0.28;;;16.30;59.80;;;;;;5024972;28;20037;-36
2021/03/20 03:10:24;;;;;;;0.20;0.20;;;16.30;59.90;;;;;;5008855;28;20045;-37
2021/03/20 03:12:55;;;;;;;0.28;0.28;;;16.30;60.00;;;;;;5010729;28;20061;-38
2021/03/20 03:15:27;;;;;;;0.20;0.20;;;16.30;59.90;;;;;;5030977;28;20032;-37
2021/03/20 03:18:07;;;;;;;0.30;0.30;;;16.30;60.20;;;;;;5028739;28;20029;-37
2021/03/20 03:20:38;;;;;;;0.30;0.22;;;16.30;60.00;;;;;;5029737;28;20025;-37
2021/03/20 03:23:10;;;;;;;0.20;0.20;;;16.30;60.00;;;;;;5044675;28;20040;-37
2021/03/20 03:25:37;;;;;;;0.57;0.30;;;16.30;59.80;;;;;;5045536;28;20106;-37
2021/03/20 03:28:04;;;;;;;0.40;0.40;;;16.30;59.80;;;;;;5008486;28;20033;-38
2021/03/20 03:30:30;;;;;;;0.30;0.30;;;16.30;59.80;;;;;;5008791;28;20117;-37
2021/03/20 03:33:03;;;;;;;0.30;0.30;;;16.30;59.80;;;;;;5076898;28;20127;-37
2021/03/20 03:35:29;;;;;;;0.28;0.28;;;16.30;60.00;;;;;;5042429;28;20033;-37
2021/03/20 03:38:06;;;;;;;0.57;0.20;;;16.30;60.10;;;;;;5063368;28;20028;-38
2021/03/20 03:41:06;;;;;;;0.27;0.27;;;16.30;59.90;;;;;;5069046;28;20045;-37
2021/03/20 03:43:33;;;;;;;0.40;0.30;;;16.20;59.90;;;;;;5069510;28;20308;-37
2021/03/20 03:45:59;;;;;;;0.57;0.30;;;16.20;60.30;;;;;;5070904;28;20120;-37
2021/03/20 03:48:25;;;;;;;0.28;0.28;;;16.20;60.30;;;;;;5088834;28;20020;-38
2021/03/20 03:50:52;;;;;;;0.20;0.20;;;16.20;60.10;;;;;;5089341;28;20036;-38
2021/03/20 03:53:26;;;;;;;0.28;0.28;;;16.20;60.00;;;;;;5089327;28;20023;-37
2021/03/20 03:55:57;;;;;;;0.20;0.20;;;16.20;60.00;;;;;;5069041;28;20059;-38
2021/03/20 03:58:32;;;;;;;0.40;0.32;;;16.20;59.90;;;;;;5051465;28;20021;-37
2021/03/20 04:01:30;;;;;;;0.20;0.20;;;16.20;60.10;;;;;;5068369;28;20052;-37
2021/03/20 04:04:02;;;;;;;0.30;0.20;;;16.10;59.90;;;;;;5048937;28;20032;-37
2021/03/20 04:07:00;;;;;;;0.32;0.30;;;16.10;60.20;;;;;;5031823;28;20029;-37
2021/03/20 04:09:39;;;;;;;0.25;0.20;;;16.10;60.40;;;;;;5045775;28;20033;-47
2021/03/20 04:12:17;;;;;;;0.20;0.20;;;16.10;59.90;;;;;;5031749;28;20041;-37
2021/03/20 04:14:52;;;;;;;0.40;0.30;;;16.10;60.00;;;;;;5069010;28;20046;-38
2021/03/20 04:17:26;;;;;;;0.28;0.25;;;16.10;59.90;;;;;;5067978;28;20036;-37
2021/03/20 04:20:16;;;;;;;0.20;0.20;;;16.10;59.80;;;;;;5071100;28;20488;-37
2021/03/20 04:23:05;;;;;;;0.30;0.20;;;16.10;59.90;;;;;;5070788;28;20031;-37
2021/03/20 04:26:07;;;;;;;1.38;0.20;;;16.10;59.90;;;;;;5088902;28;20778;-37
2021/03/20 04:28:42;;;;;;;0.30;0.30;;;16.00;60.00;;;;;;5038592;28;20115;-37
2021/03/20 04:31:26;;;;;;;0.30;0.30;;;16.00;59.90;;;;;;5052987;28;20022;-38
2021/03/20 04:34:14;;;;;;;0.25;0.22;;;16.00;60.00;;;;;;5055755;28;20032;-37
2021/03/20 04:37:10;;;;;;;0.60;0.30;;;16.00;60.40;;;;;;5056796;28;20037;-37
2021/03/20 04:39:38;;;;;;;0.88;0.30;;;16.00;60.00;;;;;;5036903;28;20025;-38
2021/03/20 04:42:05;;;;;;;0.30;0.30;;;16.00;60.20;;;;;;5034326;28;20055;-37
2021/03/20 04:44:33;;;;;;;1.05;0.40;;;16.00;60.20;;;;;;5059116;28;20024;-37
2021/03/20 04:46:59;;;;;;;0.35;0.32;;;15.90;60.00;;;;;;5071107;28;20044;-37
2021/03/20 04:49:41;;;;;;;0.30;0.30;;;15.90;60.30;;;;;;5051216;28;20035;-37
2021/03/20 04:52:11;;;;;;;0.32;0.22;;;16.00;60.10;;;;;;5051650;28;20028;-38
2021/03/20 04:54:37;;;;;;;0.30;0.30;;;15.90;59.90;;;;;;5067542;28;20024;-37
2021/03/20 04:57:09;;;;;;;0.22;0.22;;;15.90;60.00;;;;;;5073445;28;20087;-37
2021/03/20 04:59:48;;;;;;;0.32;0.30;;;15.90;59.80;;;;;;5065110;28;20032;-37
2021/03/20 05:02:27;;;;;;;0.70;0.30;;;15.90;60.00;;;;;;5035991;28;20479;-38
2021/03/20 05:04:57;;;;;;;0.43;0.30;;;15.90;60.10;;;;;;5012563;28;20093;-38
2021/03/20 05:07:23;;;;;;;0.30;0.30;;;15.80;60.00;;;;;;5011278;28;20055;-37
2021/03/20 05:09:58;;;;;;;0.30;0.30;;;15.80;60.00;;;;;;5027127;28;20049;-37
2021/03/20 05:12:27;;;;;;;0.68;0.30;;;15.90;59.90;;;;;;5027656;28;20050;-37
2021/03/20 05:15:05;;;;;;;0.75;0.30;;;15.80;59.80;;;;;;5047151;28;20029;-37
2021/03/20 05:17:32;;;;;;;0.28;0.28;;;15.80;59.90;;;;;;5048475;28;20033;-37
2021/03/20 05:19:59;;;;;;;0.50;0.40;;;15.80;60.00;;;;;;5064535;28;20052;-37
2021/03/20 05:22:31;;;;;;;0.60;0.30;;;15.80;59.90;;;;;;5064821;28;20839;-37
2021/03/20 05:24:58;;;;;;;0.20;0.20;;;15.80;59.90;;;;;;5064987;28;20068;-37
2021/03/20 05:27:30;;;;;;;0.30;0.28;;;15.80;60.00;;;;;;5050075;28;20458;-37
2021/03/20 05:29:56;;;;;;;0.30;0.30;;;15.80;60.00;;;;;;5044736;28;20033;-37
2021/03/20 05:32:27;;;;;;;0.28;0.25;;;15.80;59.80;;;;;;5051735;28;20105;-37
2021/03/20 05:34:54;;;;;;;0.30;0.30;;;15.70;59.80;;;;;;5076863;28;20021;-38
2021/03/20 05:37:29;;;;;;;0.20;0.20;;;15.70;59.80;;;;;;5035586;28;20034;-37
2021/03/20 05:39:55;;;;;;;0.35;0.35;;;15.70;60.10;;;;;;5044550;28;20033;-38
2021/03/20 05:42:39;;;;;;;0.30;0.30;;;15.70;59.80;;;;;;5026579;28;20057;-38
2021/03/20 05:45:24;;;;;;;0.52;0.30;;;15.70;60.00;;;;;;5044553;28;20041;-37
2021/03/20 05:48:04;;;;;;;2.03;0.40;;;15.70;59.70;;;;;;5026403;28;20061;-38
2021/03/20 05:50:36;;;;;;;0.45;0.40;;;15.70;60.00;;;;;;5026450;28;20027;-38
2021/03/20 05:53:09;;;;;;;0.30;0.30;;;15.60;59.90;;;;;;5026460;28;20109;-37
2021/03/20 05:55:45;;;;;;;0.30;0.30;;;15.60;59.90;;;;;;5026338;28;20022;-37
2021/03/20 05:59:13;;;;;;;0.45;0.30;;;15.60;60.20;;;;;;5026528;28;20032;-37
2021/03/20 06:01:45;;;;;;;0.38;0.38;;;15.70;59.80;;;;;;4929542;29;20047;-37
2021/03/20 06:04:19;;;;;;;0.50;0.32;;;15.60;59.80;;;;;;4924985;29;20079;-39
2021/03/20 06:06:57;;;;;;;0.98;0.40;;;15.60;60.00;;;;;;4925097;29;20052;-37
2021/03/20 06:09:28;;;;;;;0.45;0.30;;;15.60;59.90;;;;;;4925234;29;20052;-39
2021/03/20 06:12:17;;;;;;;0.73;0.22;;;15.60;59.90;;;;;;4937206;29;20050;-38
2021/03/20 06:15:17;;;;;;;0.63;0.30;;;15.50;59.80;;;;;;4919295;29;20683;-37
2021/03/20 06:18:02;;;;;;;0.50;0.38;;;15.60;59.90;;;;;;4924632;29;20117;-37
2021/03/20 06:20:43;;;;;;;0.40;0.40;;;15.50;60.00;;;;;;4924829;29;20123;-37
2021/03/20 06:23:33;;;;;;;0.80;0.47;;;15.50;60.00;;;;;;4924947;29;20398;-38
2021/03/20 06:26:18;;;;;;;0.40;0.40;;;15.50;59.90;;;;;;4921943;29;20540;-37
2021/03/20 06:28:59;;;;;;;0.50;0.40;;;15.50;60.10;;;;;;4890271;29;20039;-37
2021/03/20 06:31:50;;;;;;;1.00;0.50;;;15.50;60.10;;;;;;4894107;29;20060;-37
2021/03/20 06:34:19;;;;;;;0.68;0.50;;;15.50;59.90;;;;;;4918904;29;20735;-37
2021/03/20 06:36:55;;;;;;;0.73;0.50;;;15.40;60.10;;;;;;4951300;28;20126;-38
2021/03/20 06:39:29;;;;;;;0.47;0.47;;;15.40;60.00;;;;;;5023535;28;20033;-37
2021/03/20 06:42:34;;;;;;;0.70;0.40;;;15.40;59.90;;;;;;5025802;28;20045;-38
2021/03/20 06:45:09;;;;;;;0.30;0.30;;;15.40;59.90;;;;;;5001100;28;20098;-37
2021/03/20 06:47:36;;;;;;;0.40;0.40;;;15.40;59.90;;;;;;5001170;28;20050;-37
2021/03/20 06:50:07;;;;;;;0.47;0.40;;;15.40;60.00;;;;;;4985103;28;20081;-37
2021/03/20 06:52:37;;;;;;;0.50;0.40;;;15.40;60.20;;;;;;5000949;28;20466;-37
2021/03/20 06:55:30;;;;;;;0.40;0.40;;;15.40;60.10;;;;;;4985098;28;20049;-37
2021/03/20 06:57:57;;;;;;;0.70;0.45;;;15.40;60.20;;;;;;4963242;28;20035;-37
2021/03/20 07:00:28;;;;;;;0.45;0.40;;;15.30;59.90;;;;;;4981665;28;20034;-37
2021/03/20 07:03:27;;;;;;;0.50;0.50;;;15.30;60.00;;;;;;4981459;28;20092;-37
2021/03/20 07:06:09;;;;;;;0.57;0.40;;;15.30;60.20;;;;;;4981281;28;20123;-37
2021/03/20 07:08:55;;;;;;;0.57;0.50;;;15.30;60.30;;;;;;4981620;28;20027;-37
2021/03/20 07:11:26;;;;;;;0.98;0.40;;;15.30;60.30;;;;;;4980536;28;20140;-39
2021/03/20 07:13:58;;;;;;;0.50;0.40;;;15.20;60.00;;;;;;4981616;28;20043;-38
2021/03/20 07:16:24;;;;;;;0.70;0.50;;;15.20;60.10;;;;;;4981409;28;20566;-37
2021/03/20 07:18:55;;;;;;;0.60;0.40;;;15.20;60.10;;;;;;5014235;28;20696;-37
2021/03/20 07:21:41;;;;;;;0.90;0.40;;;15.20;60.10;;;;;;5036495;28;20109;-37
2021/03/20 07:24:17;;;;;;;0.30;0.30;;;15.20;60.20;;;;;;5062802;28;20013;-37
2021/03/20 07:27:04;;;;;;;0.35;0.32;;;15.20;60.20;;;;;;5044841;28;20037;-37
2021/03/20 07:29:42;;;;;;;0.50;0.45;;;15.20;60.00;;;;;;5045619;28;20029;-37
2021/03/20 07:32:09;;;;;;;0.63;0.45;;;15.20;60.40;;;;;;5031242;28;20029;-37
2021/03/20 07:34:35;;;;;;;1.33;0.50;;;15.10;60.40;;;;;;5062465;28;20048;-37
2021/03/20 07:37:20;;;;;;;0.38;0.30;;;15.20;60.40;;;;;;5036025;28;20258;-37
2021/03/20 07:39:55;;;;;;;0.70;0.60;;;15.20;60.30;;;;;;5062635;28;20525;-39
2021/03/20 07:42:31;;;;;;;0.95;0.50;;;15.10;60.30;;;;;;5062219;28;20039;-38
2021/03/20 07:44:59;;;;;;;0.43;0.40;;;15.10;60.50;;;;;;5074502;28;20032;-37
2021/03/20 07:47:29;;;;;;;;;;;15.10;60.40;;;;;;5082879;28;20029;-37
2021/03/20 07:50:22;;;;;;;0.55;0.50;;;15.10;60.50;;;;;;5064735;28;19904;-37
2021/03/20 07:53:09;;;;;;;0.40;0.40;;;15.10;60.50;;;;;;5082213;28;20539;-37
2021/03/20 07:55:54;;;;;;;0.50;0.50;;;15.10;60.60;;;;;;5064422;28;20039;-37
2021/03/20 07:58:31;;;;;;;0.65;0.50;;;15.10;60.60;;;;;;5024756;28;20033;-37
2021/03/20 08:01:02;;;;;;;0.60;0.40;;;15.00;60.70;;;;;;5025537;28;20083;-37
2021/03/20 08:03:31;;;;;;;0.60;0.60;;;15.00;60.60;;;;;;5028120;28;20040;-37
2021/03/20 08:06:15;;;;;;;0.60;0.47;;;15.00;60.70;;;;;;5062400;28;20025;-37
2021/03/20 08:08:41;;;;;;;0.65;0.50;;;15.00;60.60;;;;;;5044463;28;20041;-37
2021/03/20 08:11:26;;;;;;;0.40;0.40;;;15.00;60.70;;;;;;5044578;28;20024;-37
2021/03/20 08:13:53;;;;;;;0.70;0.50;;;15.00;60.50;;;;;;5039346;28;20046;-37
2021/03/20 08:16:20;;;;;;;0.60;0.50;;;15.00;60.60;;;;;;5005232;28;20018;-38
2021/03/20 08:18:47;;;;;;;0.60;0.50;;;15.00;60.70;;;;;;5008894;28;20037;-37
2021/03/20 08:21:16;;;;;;;0.52;0.52;;;15.00;60.60;;;;;;5062355;28;20024;-37
2021/03/20 08:24:16;;;;;;;0.60;0.50;;;14.90;60.50;;;;;;5064203;28;20033;-37
2021/03/20 08:27:17;;;;;;;0.50;0.47;;;14.90;60.70;;;;;;5057100;28;20045;-37
2021/03/20 08:30:05;;;;;;;0.55;0.40;;;14.90;60.70;;;;;;5001312;28;20060;-37
2021/03/20 08:32:40;;;;;;;0.60;0.60;;;14.90;60.50;;;;;;5051949;28;20037;-37
2021/03/20 08:35:33;;;;;;;0.60;0.50;;;14.90;60.50;;;;;;5045922;28;20057;-37
2021/03/20 08:38:18;;;;;;;0.52;0.50;;;14.90;60.70;;;;;;5031207;28;20029;-38
2021/03/20 08:40:58;;;;;;;0.63;0.60;;;14.80;60.50;;;;;;5040243;28;20044;-37
2021/03/20 08:43:26;;;;;;;0.95;0.50;;;14.80;60.60;;;;;;5040953;28;20022;-37
2021/03/20 08:46:23;;;;;;;0.75;0.70;;;14.80;60.80;;;;;;5064974;28;20051;-37
2021/03/20 08:48:58;;;;;;;0.50;0.50;;;14.80;60.90;;;;;;5065630;28;20029;-38
2021/03/20 08:51:59;;;;;;;0.45;0.45;;;14.80;60.90;;;;;;5065572;28;20040;-37
2021/03/20 08:55:19;;;;;;;1.95;0.55;;;14.80;60.90;;;;;;5049194;28;20029;-37
2021/03/20 08:57:58;;;;;;;0.82;0.60;;;14.80;60.90;;;;;;4964780;28;20062;-37
2021/03/20 09:00:24;;;;;;;0.90;0.50;;;14.70;60.80;;;;;;4964621;29;20027;-37
2021/03/20 09:02:52;;;;;;;1.85;0.50;;;14.70;61.00;;;;;;4962577;29;20810;-38
2021/03/20 09:05:25;;;;;;;0.50;0.50;;;14.70;60.80;;;;;;4948748;29;20027;-37
2021/03/20 09:07:53;;;;;;;1.05;0.70;;;14.70;60.80;;;;;;4949055;29;20043;-37
2021/03/20 09:10:33;;;;;;;0.93;0.50;;;14.70;60.80;;;;;;4948560;29;20072;-37
2021/03/20 09:13:06;;;;;;;1.00;0.68;;;14.60;60.90;;;;;;4976478;28;20051;-37
2021/03/20 09:15:33;;;;;;;0.88;0.63;;;14.60;60.80;;;;;;4935923;29;20031;-39
2021/03/20 09:18:00;;;;;;;0.60;0.60;;;14.60;60.90;;;;;;4948185;29;20043;-37
2021/03/20 09:20:32;;;;;;;0.60;0.57;;;14.60;60.90;;;;;;4948608;29;20095;-37
2021/03/20 09:22:58;;;;;;;1.10;0.60;;;14.60;60.90;;;;;;4967601;28;20034;-37
2021/03/20 09:25:29;;;;;;;0.80;0.57;;;14.60;60.90;;;;;;4967521;28;20062;-37
2021/03/20 09:28:14;;;;;;;0.80;0.60;;;14.60;61.00;;;;;;4983666;28;20055;-37
2021/03/20 09:30:54;;;;;;;0.63;0.63;;;14.60;61.10;;;;;;4986381;28;20037;-37
2021/03/20 09:33:26;;;;;;;1.00;0.70;;;14.60;61.10;;;;;;5044372;28;20033;-38
2021/03/20 09:35:57;;;;;;;0.85;0.52;;;14.60;61.10;;;;;;5050001;28;20029;-37
2021/03/20 09:38:35;;;;;;;1.17;0.68;;;14.50;60.80;;;;;;5045795;28;20021;-38
2021/03/20 09:41:13;;;;;;;1.13;0.60;;;14.50;61.00;;;;;;5064733;28;20494;-38
2021/03/20 09:43:51;;;;;;;0.90;0.70;;;14.50;61.30;;;;;;5065466;28;20028;-37
2021/03/20 09:46:46;;;;;;;0.60;0.60;;;14.50;61.10;;;;;;5067758;28;20044;-37
2021/03/20 09:49:15;;;;;;;0.60;0.60;;;14.40;60.90;;;;;;5084645;28;20025;-37
2021/03/20 09:52:01;;;;;;;1.15;0.80;;;14.40;61.20;;;;;;5084709;28;20506;-37
2021/03/20 09:54:48;;;;;;;0.90;0.60;;;14.40;61.10;;;;;;5066424;28;20668;-37
2021/03/20 09:59:44;;;;;;;0.52;0.50;;;14.40;61.10;;;;;;5064381;28;20043;-37
2021/03/20 10:02:10;;;;;;;0.70;0.50;;;14.40;62.10;;;;;;5064222;28;20025;-37
2021/03/20 10:04:52;;;;;;;0.73;0.60;;;14.40;61.30;;;;;;5063951;28;20025;-37
2021/03/20 10:07:22;;;;;;;0.68;0.55;;;14.30;61.00;;;;;;5064043;28;20111;-37
2021/03/20 10:09:58;;;;;;;0.73;0.60;;;14.30;61.30;;;;;;5064170;28;20048;-37
2021/03/20 10:12:47;;;;;;;0.60;0.60;;;14.30;61.10;;;;;;5065465;28;20079;-37
2021/03/20 10:15:23;;;;;;;0.60;0.60;;;14.30;61.10;;;;;;5021852;28;20041;-37
2021/03/20 10:18:04;;;;;;;0.88;0.80;;;14.20;61.30;;;;;;5010812;28;20030;-37
2021/03/20 10:20:55;;;;;;;0.88;0.70;;;14.20;61.20;;;;;;5044065;28;20159;-38
2021/03/20 10:23:40;;;;;;;0.75;0.70;;;14.20;61.30;;;;;;5027815;28;20034;-38
2021/03/20 10:26:37;;;;;;;1.15;0.70;;;14.20;61.30;;;;;;5047483;28;20037;-37
2021/03/20 10:29:07;;;;;;;1.08;0.60;;;14.20;61.20;;;;;;5029425;28;20051;-37
2021/03/20 10:31:42;;;;;;;0.70;0.70;;;14.20;61.40;;;;;;5063557;28;20116;-37
2021/03/20 10:34:13;;;;;;;1.10;0.80;;;14.20;61.20;;;;;;5063135;28;20033;-37
2021/03/20 10:36:44;;;;;;;1.13;0.75;;;14.10;61.10;;;;;;5037767;28;20113;-37
2021/03/20 10:39:26;;;;;;;0.73;0.73;;;14.10;61.40;;;;;;5043614;28;20029;-37
2021/03/20 10:41:54;;;;;;;0.57;0.57;;;14.10;61.30;;;;;;5026151;28;20088;-37
2021/03/20 10:44:26;;;;;;;0.93;0.75;;;14.10;61.30;;;;;;5035562;28;20036;-37
2021/03/20 10:47:24;;;;;;;1.10;0.88;;;14.10;61.40;;;;;;5061864;28;20048;-37
2021/03/20 10:50:13;;;;;;;1.20;0.68;;;14.10;61.10;;;;;;5063882;28;20037;-37
2021/03/20 10:52:40;;;;;;;1.17;0.80;;;14.10;61.20;;;;;;5068112;28;20060;-37
2021/03/20 10:55:15;;;;;;;;;;;14.00;61.20;;;;;;5049318;28;20030;-38
2021/03/20 10:57:41;;;;;;;1.10;0.90;;;14.00;61.30;;;;;;5065846;28;19981;-37
2021/03/20 11:00:23;;;;;;;0.85;0.77;;;14.00;61.50;;;;;;5063294;28;20035;-37
2021/03/20 11:02:49;;;;;;;1.10;0.82;;;14.00;61.50;;;;;;5062841;28;20398;-37
2021/03/20 11:05:24;;;;;;;0.68;0.65;;;13.90;61.50;;;;;;5028635;28;20695;-37
2021/03/20 11:08:23;;;;;;;0.60;0.60;;;14.00;61.40;;;;;;5063172;28;20052;-37
2021/03/20 11:11:05;;;;;;;0.73;0.70;;;14.00;61.30;;;;;;5020597;28;20037;-37
2021/03/20 11:13:37;;;;;;;0.75;0.68;;;13.90;61.40;;;;;;5020540;28;20053;-39
2021/03/20 11:16:06;;;;;;;1.40;0.80;;;13.90;61.50;;;;;;5004056;28;20029;-37
2021/03/20 11:18:36;;;;;;;0.98;0.68;;;13.90;61.50;;;;;;5020579;28;20029;-37
2021/03/20 11:21:03;;;;;;;1.10;0.88;;;13.90;61.30;;;;;;5004457;28;20041;-37
2021/03/20 11:23:32;;;;;;;1.80;0.70;;;13.90;61.30;;;;;;5004246;28;20052;-37
2021/03/20 11:26:12;;;;;;;0.75;0.70;;;13.90;61.20;;;;;;5020263;28;20479;-37
2021/03/20 11:28:38;;;;;;;1.08;0.88;;;13.90;61.30;;;;;;5020609;28;20061;-37
2021/03/20 11:31:05;;;;;;;0.63;0.60;;;13.80;61.30;;;;;;5004106;28;20037;-36
2021/03/20 11:33:33;;;;;;;0.70;0.70;;;13.80;61.40;;;;;;5003288;28;20037;-38
2021/03/20 11:36:02;;;;;;;1.40;0.82;;;13.80;61.40;;;;;;4982507;28;20069;-37
2021/03/20 11:38:29;;;;;;;0.55;0.55;;;13.80;61.40;;;;;;4984480;28;20029;-37
2021/03/20 11:40:55;;;;;;;1.35;0.90;;;13.80;61.40;;;;;;4984601;28;20038;-37
2021/03/20 11:43:33;;;;;;;0.77;0.77;;;13.70;61.20;;;;;;5000964;28;20074;-37
2021/03/20 11:46:11;;;;;;;1.20;0.90;;;13.70;61.40;;;;;;4997584;28;20048;-38
2021/03/20 11:48:53;;;;;;;0.95;0.82;;;13.70;61.30;;;;;;5042766;28;20574;-37
2021/03/20 11:51:49;;;;;;;0.90;0.80;;;13.70;61.40;;;;;;5042886;28;20631;-37
2021/03/20 11:54:32;;;;;;;0.77;0.70;;;13.70;61.10;;;;;;5026616;28;20030;-46
2021/03/20 11:57:04;;;;;;;0.88;0.75;;;13.70;61.40;;;;;;5046960;28;20031;-38
2021/03/20 11:59:40;;;;;;;0.93;0.80;;;13.70;61.30;;;;;;5086389;28;20032;-38
2021/03/20 12:02:27;;;;;;;1.27;0.80;;;13.70;61.90;;;;;;5076074;28;20060;-37
2021/03/20 12:05:12;;;;;;;0.98;0.63;;;13.70;61.20;;;;;;5058790;28;20029;-37
2021/03/20 12:07:38;;;;;;;1.50;0.93;;;13.60;61.10;;;;;;5066355;28;20037;-37
2021/03/20 12:10:19;;;;;;;0.93;0.80;;;13.60;61.40;;;;;;5066172;28;20022;-36
2021/03/20 12:12:56;;;;;;;1.50;0.90;;;13.60;61.40;;;;;;5065911;28;20049;-37
2021/03/20 12:15:28;;;;;;;1.02;0.90;;;13.60;61.50;;;;;;5051037;28;20034;-37
2021/03/20 12:17:56;;;;;;;1.50;1.02;;;13.60;61.50;;;;;;5046025;28;20057;-37
2021/03/20 12:20:43;;;;;;;0.90;0.70;;;13.60;61.30;;;;;;5046886;28;20041;-37
2021/03/20 12:23:14;;;;;;;1.23;1.00;;;13.60;61.10;;;;;;5028309;28;20122;-42
2021/03/20 12:25:44;;;;;;;1.42;1.00;;;13.60;61.40;;;;;;5046420;28;20031;-37
2021/03/20 12:28:26;;;;;;;1.52;0.98;;;13.50;61.30;;;;;;5065896;28;20024;-37
2021/03/20 12:31:04;;;;;;;1.38;0.93;;;13.60;61.40;;;;;;5066112;28;20033;-36
2021/03/20 12:33:30;;;;;;;1.45;0.93;;;13.50;61.20;;;;;;5065443;28;20024;-37
2021/03/20 12:35:56;;;;;;;1.00;0.70;;;13.50;61.20;;;;;;5086021;28;20047;-37
2021/03/20 12:38:26;;;;;;;1.10;0.93;;;13.50;61.20;;;;;;5051082;28;20062;-37
2021/03/20 12:41:01;;;;;;;1.42;1.13;;;13.50;61.30;;;;;;5085946;28;20118;-37
2021/03/20 12:43:37;;;;;;;1.23;0.90;;;13.50;61.40;;;;;;5085516;28;20395;-37
2021/03/20 12:46:06;;;;;;;1.60;1.00;;;13.40;61.30;;;;;;5050930;28;20029;-38
2021/03/20 12:48:38;;;;;;;1.00;0.90;;;13.40;61.40;;;;;;5051110;28;20037;-37
2021/03/20 12:51:06;;;;;;;1.45;1.13;;;13.40;61.40;;;;;;5045646;28;20594;-37
2021/03/20 12:53:33;;;;;;;1.50;1.08;;;13.40;61.30;;;;;;5027645;28;20056;-36
2021/03/20 12:55:59;;;;;;;0.85;0.80;;;13.40;61.40;;;;;;5033618;28;20059;-37
2021/03/20 12:58:25;;;;;;;1.02;0.80;;;13.40;61.50;;;;;;5071588;28;20017;-37
2021/03/20 13:00:51;;;;;;;1.02;0.90;;;13.40;61.40;;;;;;5085337;28;20035;-36
2021/03/20 13:03:20;;;;;;;1.20;0.90;;;13.40;61.40;;;;;;5045057;28;20018;-37
2021/03/20 13:05:46;;;;;;;1.13;1.00;;;13.40;61.30;;;;;;5045291;28;20040;-37
2021/03/20 13:08:12;;;;;;;1.38;1.10;;;13.40;61.30;;;;;;5045463;28;20032;-37
2021/03/20 13:10:39;;;;;;;1.23;1.10;;;13.40;61.40;;;;;;5043962;28;20025;-37
2021/03/20 13:13:05;;;;;;;1.48;1.10;;;13.40;61.20;;;;;;5044913;28;20060;-37
2021/03/20 13:15:31;;;;;;;1.90;1.10;;;13.40;61.30;;;;;;5078224;28;20040;-37
2021/03/20 13:17:58;;;;;;;1.10;1.00;;;13.40;61.20;;;;;;5085042;28;20016;-37
2021/03/20 13:20:24;;;;;;;2.08;1.10;;;13.40;61.20;;;;;;5067263;28;20048;-37
2021/03/20 13:22:50;;;;;;;1.67;0.93;;;13.30;61.20;;;;;;5084976;28;20108;-37
2021/03/20 13:25:30;;;;;;;1.55;1.08;;;13.30;61.30;;;;;;5085197;28;20040;-37
2021/03/20 13:27:56;;;;;;;2.13;0.90;;;13.40;61.30;;;;;;5065686;28;20036;-37
2021/03/20 13:30:24;;;;;;;2.00;1.17;;;13.30;61.20;;;;;;5064945;28;20064;-37
2021/03/20 13:32:54;;;;;;;1.00;0.90;;;13.30;61.30;;;;;;5030631;28;20030;-37